createdAt,value
2023-08-05T00:01:42.902Z,4.20
2023-08-05T00:04:11.685Z,4.60
2023-08-05T00:06:40.730Z,4.50
2023-08-05T00:09:09.388Z,4.80
2023-08-05T00:11:38.125Z,4.30
2023-08-05T00:14:06.879Z,5.10
2023-08-05T00:16:35.655Z,5.30
2023-08-05T00:19:04.450Z,5.10
2023-08-05T00:21:33.261Z,4.50
2023-08-05T00:24:02.116Z,4.90
2023-08-05T00:26:30.913Z,5.10
2023-08-05T00:28:59.641Z,4.80
2023-08-05T00:31:28.475Z,4.60
2023-08-05T00:33:57.255Z,5.20
2023-08-05T00:36:26.039Z,5.30
2023-08-05T00:38:54.813Z,5.30
2023-08-05T00:41:23.641Z,5.10
2023-08-05T00:43:52.346Z,5.20
2023-08-05T00:46:24.438Z,5.40
2023-08-05T00:48:54.423Z,5.70
2023-08-05T00:51:23.281Z,5.50
2023-08-05T00:53:52.182Z,5.50
2023-08-05T00:56:20.970Z,5.20
2023-08-05T00:58:49.711Z,5.40
2023-08-05T01:01:19.035Z,5.40
2023-08-05T01:03:48.221Z,5.70
2023-08-05T01:06:18.201Z,5.90
2023-08-05T01:08:47.995Z,6.00
2023-08-05T01:11:17.587Z,5.30
2023-08-05T01:13:46.576Z,5.50
2023-08-05T01:16:15.377Z,5.90
2023-08-05T01:18:44.395Z,5.60
2023-08-05T01:21:26.932Z,5.50
2023-08-05T01:24:36.190Z,6.00
2023-08-05T01:27:06.750Z,5.50
2023-08-05T01:29:35.796Z,5.00
2023-08-05T01:32:06.876Z,6.50
2023-08-05T01:34:35.939Z,5.40
2023-08-05T01:37:05.187Z,5.10
2023-08-05T01:39:34.429Z,5.80
2023-08-05T01:42:03.380Z,5.70
2023-08-05T01:44:32.164Z,5.50
2023-08-05T01:47:00.982Z,6.00
2023-08-05T01:49:29.748Z,5.90
2023-08-05T01:51:59.644Z,6.30
2023-08-05T01:54:28.410Z,5.70
2023-08-05T01:56:57.203Z,5.70
2023-08-05T01:59:25.962Z,5.60
2023-08-05T02:01:54.768Z,5.90
2023-08-05T02:04:23.606Z,6.60
2023-08-05T02:06:52.739Z,6.00
2023-08-05T02:09:21.793Z,5.80
2023-08-05T02:11:50.589Z,5.90
2023-08-05T02:14:20.497Z,6.10
2023-08-05T02:16:49.614Z,6.10
2023-08-05T02:19:20.547Z,5.70
2023-08-05T02:21:50.032Z,5.90
2023-08-05T02:24:18.754Z,5.80
2023-08-05T02:26:49.211Z,6.30
2023-08-05T02:29:18.202Z,6.40
2023-08-05T02:31:46.914Z,7.30
2023-08-05T02:34:15.588Z,6.20
2023-08-05T02:36:44.359Z,6.40
2023-08-05T02:39:13.744Z,6.30
2023-08-05T02:41:42.858Z,6.90
2023-08-05T02:44:11.509Z,5.90
2023-08-05T02:46:40.240Z,6.80
2023-08-05T02:49:10.069Z,7.60
2023-08-05T02:51:38.920Z,6.50
2023-08-05T02:54:07.686Z,6.70
2023-08-05T02:56:36.417Z,7.00
2023-08-05T02:59:05.119Z,6.50
2023-08-05T03:01:33.866Z,7.00
2023-08-05T03:04:02.609Z,6.80
2023-08-05T03:06:31.434Z,7.10
2023-08-05T03:09:00.330Z,6.80
2023-08-05T03:11:34.426Z,7.60
2023-08-05T03:14:03.616Z,7.40
2023-08-05T03:16:32.688Z,7.20
2023-08-05T03:19:05.739Z,7.20
2023-08-05T03:21:34.895Z,7.50
2023-08-05T03:24:04.009Z,7.50
2023-08-05T03:26:33.364Z,7.20
2023-08-05T03:29:05.379Z,7.80
2023-08-05T03:31:34.400Z,7.60
2023-08-05T03:34:03.354Z,7.50
2023-08-05T03:36:32.877Z,8.20
2023-08-05T03:39:01.637Z,8.00
2023-08-05T03:41:30.937Z,8.80
2023-08-05T03:44:00.399Z,8.80
2023-08-05T03:46:29.959Z,9.10
2023-08-05T03:48:59.173Z,9.70
2023-08-05T03:51:28.451Z,9.30
2023-08-05T03:53:58.258Z,10.00
2023-08-05T03:56:28.732Z,9.50
2023-08-05T03:58:58.898Z,9.20
2023-08-05T04:01:28.382Z,9.40
2023-08-05T04:03:57.685Z,9.10
2023-08-05T04:06:27.054Z,9.90
2023-08-05T04:08:55.895Z,9.30
2023-08-05T04:11:24.726Z,8.80
2023-08-05T04:13:54.299Z,8.80
2023-08-05T04:16:24.653Z,9.00
2023-08-05T04:18:53.828Z,7.70
2023-08-05T04:21:26.496Z,7.90
2023-08-05T04:26:25.723Z,8.40
2023-08-05T04:28:54.806Z,9.20
2023-08-05T04:31:23.635Z,16.50
2023-08-05T04:33:52.513Z,7.60
2023-08-05T04:36:21.241Z,9.60
2023-08-05T04:38:50.005Z,8.60
2023-08-05T04:41:18.806Z,8.10
2023-08-05T04:43:47.602Z,8.30
2023-08-05T04:46:16.375Z,8.50
2023-08-05T04:48:45.190Z,8.40
2023-08-05T04:51:13.945Z,8.50
2023-08-05T04:53:42.689Z,8.40
2023-08-05T04:56:12.117Z,9.30
2023-08-05T04:58:40.825Z,8.70
2023-08-05T05:01:09.572Z,9.20
2023-08-05T05:03:38.387Z,9.00
2023-08-05T05:06:07.458Z,8.90
2023-08-05T05:08:36.232Z,10.10
2023-08-05T05:11:04.980Z,9.20
2023-08-05T05:13:33.700Z,9.50
2023-08-05T05:16:04.584Z,9.20
2023-08-05T05:18:33.664Z,9.40
2023-08-05T05:21:02.718Z,9.60
2023-08-05T05:23:31.576Z,8.40
2023-08-05T05:26:00.429Z,9.80
2023-08-05T05:28:29.384Z,8.50
2023-08-05T05:30:59.578Z,8.70
2023-08-05T05:33:28.351Z,9.60
2023-08-05T05:35:57.084Z,7.30
2023-08-05T05:38:25.790Z,8.70
2023-08-05T05:40:57.440Z,8.10
2023-08-05T05:43:26.179Z,8.00
2023-08-05T05:45:54.963Z,7.20
2023-08-05T05:48:23.721Z,7.10
2023-08-05T05:50:55.542Z,7.40
2023-08-05T05:53:24.404Z,7.70
2023-08-05T05:55:56.153Z,7.20
2023-08-05T05:58:24.996Z,8.10
2023-08-05T06:00:57.081Z,7.50
2023-08-05T06:03:26.049Z,7.80
2023-08-05T06:05:56.921Z,8.20
2023-08-05T06:08:25.765Z,7.40
2023-08-05T06:10:54.933Z,7.00
2023-08-05T06:13:24.085Z,6.30
2023-08-05T06:15:55.360Z,6.60
2023-08-05T06:18:24.141Z,6.60
2023-08-05T06:20:52.916Z,6.30
2023-08-05T06:23:21.762Z,6.70
2023-08-05T06:25:50.509Z,6.10
2023-08-05T06:28:19.288Z,6.30
2023-08-05T06:30:48.155Z,6.20
2023-08-05T06:33:16.835Z,6.60
2023-08-05T06:35:45.797Z,6.90
2023-08-05T06:38:14.591Z,17.60
2023-08-05T06:40:43.373Z,6.90
2023-08-05T06:43:12.190Z,5.70
2023-08-05T06:45:41.039Z,5.00
2023-08-05T06:48:09.872Z,5.30
2023-08-05T06:50:38.621Z,5.50
2023-08-05T06:53:07.327Z,5.40
2023-08-05T06:55:36.066Z,5.30
2023-08-05T06:58:04.861Z,5.10
2023-08-05T07:00:33.721Z,5.90
2023-08-05T07:03:05.256Z,5.00
2023-08-05T07:05:34.316Z,5.90
2023-08-05T07:08:03.186Z,6.60
2023-08-05T07:10:32.017Z,5.80
2023-08-05T07:13:03.446Z,5.70
2023-08-05T07:15:32.492Z,5.70
2023-08-05T07:18:01.275Z,5.20
2023-08-05T07:20:30.046Z,5.00
2023-08-05T07:22:59.006Z,5.20
2023-08-05T07:25:27.812Z,5.30
2023-08-05T07:27:56.658Z,5.70
2023-08-05T07:30:25.450Z,5.60
2023-08-05T07:32:54.216Z,5.60
2023-08-05T07:35:23.064Z,5.50
2023-08-05T07:37:53.632Z,5.40
2023-08-05T07:40:22.585Z,4.90
2023-08-05T07:42:51.454Z,5.10
2023-08-05T07:45:22.480Z,5.90
2023-08-05T07:47:53.295Z,5.90
2023-08-05T07:50:24.133Z,6.20
2023-08-05T07:52:54.953Z,5.20
2023-08-05T07:55:25.777Z,5.10
2023-08-05T07:57:54.779Z,4.90
2023-08-05T08:00:23.634Z,4.70
2023-08-05T08:02:52.557Z,4.70
2023-08-05T08:05:21.465Z,5.00
2023-08-05T08:07:51.555Z,4.60
2023-08-05T08:10:21.940Z,5.70
2023-08-05T08:12:51.358Z,4.90
2023-08-05T08:15:20.190Z,5.30
2023-08-05T08:17:48.973Z,4.70
2023-08-05T08:20:17.892Z,5.60
2023-08-05T08:22:46.686Z,4.40
2023-08-05T08:25:15.573Z,5.10
2023-08-05T08:27:44.315Z,4.80
2023-08-05T08:30:14.054Z,4.70
2023-08-05T08:32:42.872Z,5.10
2023-08-05T08:35:14.251Z,4.40
2023-08-05T08:37:43.670Z,4.90
2023-08-05T08:40:13.263Z,5.30
2023-08-05T08:42:44.255Z,4.50
2023-08-05T08:45:16.522Z,4.70
2023-08-05T08:50:18.976Z,4.70
2023-08-05T08:52:49.698Z,4.90
2023-08-05T08:55:20.049Z,4.60
2023-08-05T09:00:17.682Z,4.80
2023-08-05T09:02:47.205Z,5.10
2023-08-05T09:05:16.285Z,4.90
2023-08-05T09:07:45.406Z,4.40
2023-08-05T09:10:14.549Z,4.30
2023-08-05T09:12:44.616Z,4.20
2023-08-05T09:15:16.611Z,4.60
2023-08-05T09:17:46.059Z,4.60
2023-08-05T09:20:22.894Z,4.20
2023-08-05T09:22:57.178Z,4.60
2023-08-05T09:25:25.946Z,4.70
2023-08-05T09:27:55.012Z,4.10
2023-08-05T09:30:25.919Z,4.00
2023-08-05T09:32:55.435Z,3.70
2023-08-05T09:35:26.655Z,4.00
2023-08-05T09:37:56.250Z,4.50
2023-08-05T09:40:35.231Z,4.30
2023-08-05T09:43:05.026Z,4.20
2023-08-05T09:45:36.810Z,3.80
2023-08-05T09:48:11.457Z,3.90
2023-08-05T09:50:41.812Z,4.00
2023-08-05T09:53:11.913Z,3.80
2023-08-05T09:55:40.772Z,4.40
2023-08-05T09:58:10.383Z,4.10
2023-08-05T10:00:43.170Z,4.00
2023-08-05T10:03:15.421Z,4.20
2023-08-05T10:05:46.533Z,3.60
2023-08-05T10:08:17.780Z,4.10
2023-08-05T10:10:48.529Z,4.20
2023-08-05T10:13:21.532Z,4.10
2023-08-05T10:15:55.350Z,3.50
2023-08-05T10:18:27.759Z,3.70
2023-08-05T10:20:57.058Z,4.00
2023-08-05T10:23:27.429Z,4.30
2023-08-05T10:26:02.753Z,4.30
2023-08-05T10:28:39.430Z,4.20
2023-08-05T10:31:29.500Z,4.00
2023-08-05T10:34:11.693Z,3.70
2023-08-05T10:36:49.910Z,3.70
2023-08-05T10:39:45.929Z,3.80
2023-08-05T10:42:37.040Z,4.00
2023-08-05T10:45:06.892Z,3.60
2023-08-05T10:47:35.926Z,3.30
2023-08-05T10:50:05.083Z,3.80
2023-08-05T10:52:37.724Z,3.70
2023-08-05T10:55:13.845Z,3.60
2023-08-05T10:57:42.713Z,3.20
2023-08-05T11:00:20.418Z,3.50
2023-08-05T11:03:10.134Z,3.50
2023-08-05T11:05:39.597Z,3.60
2023-08-05T11:08:09.030Z,3.20
2023-08-05T11:10:38.667Z,3.40
2023-08-05T11:13:08.253Z,4.80
2023-08-05T11:15:45.348Z,3.80
2023-08-05T11:18:14.454Z,3.90
2023-08-05T11:20:44.254Z,2.90
2023-08-05T11:23:16.309Z,3.50
2023-08-05T11:25:48.591Z,3.50
2023-08-05T11:28:17.848Z,3.50
2023-08-05T11:30:46.611Z,3.30
2023-08-05T11:33:15.357Z,3.20
2023-08-05T11:35:49.955Z,2.90
2023-08-05T11:38:20.445Z,3.10
2023-08-05T11:40:52.956Z,4.30
2023-08-05T11:43:23.111Z,2.90
2023-08-05T11:45:56.074Z,3.20
2023-08-05T11:48:27.708Z,3.00
2023-08-05T11:51:03.257Z,2.70
2023-08-05T11:53:31.983Z,3.20
2023-08-05T11:56:00.777Z,3.10
2023-08-05T11:58:34.279Z,3.00
2023-08-05T12:01:04.680Z,3.20
2023-08-05T12:03:34.549Z,3.20
2023-08-05T12:06:05.344Z,2.90
2023-08-05T12:08:44.063Z,2.80
2023-08-05T12:11:15.445Z,3.00
2023-08-05T12:13:46.194Z,2.90
2023-08-05T12:16:18.299Z,3.20
2023-08-05T12:18:48.274Z,3.00
2023-08-05T12:21:16.985Z,3.40
2023-08-05T12:23:45.918Z,2.80
2023-08-05T12:26:16.862Z,2.70
2023-08-05T12:28:45.577Z,2.70
2023-08-05T12:31:14.866Z,3.00
2023-08-05T12:33:43.614Z,2.60
2023-08-05T12:36:12.307Z,2.80
2023-08-05T12:38:41.007Z,2.60
2023-08-05T12:41:09.628Z,2.80
2023-08-05T12:43:38.526Z,2.90
2023-08-05T12:46:07.358Z,2.40
2023-08-05T12:48:36.279Z,2.50
2023-08-05T12:51:05.483Z,2.90
2023-08-05T12:53:34.374Z,2.40
2023-08-05T12:56:03.255Z,3.10
2023-08-05T12:58:31.989Z,3.10
2023-08-05T13:01:00.861Z,2.90
2023-08-05T13:03:30.285Z,3.30
2023-08-05T13:06:00.789Z,2.70
2023-08-05T13:08:29.577Z,2.80
2023-08-05T13:10:58.424Z,2.70
2023-08-05T13:13:27.629Z,2.90
2023-08-05T13:15:56.589Z,2.90
2023-08-05T13:18:25.405Z,2.60
2023-08-05T13:20:54.067Z,2.70
2023-08-05T13:23:22.928Z,2.80
2023-08-05T13:25:51.654Z,2.70
2023-08-05T13:28:20.371Z,2.80
2023-08-05T13:30:49.133Z,3.00
2023-08-05T13:33:17.886Z,3.00
2023-08-05T13:35:48.340Z,3.40
2023-08-05T13:38:17.055Z,2.60
2023-08-05T13:40:59.024Z,2.80
2023-08-05T13:43:28.303Z,2.70
2023-08-05T13:45:58.041Z,2.40
2023-08-05T13:48:26.933Z,2.50
2023-08-05T13:51:09.220Z,3.10
2023-08-05T13:53:39.130Z,3.00
2023-08-05T13:56:08.127Z,2.80
2023-08-05T13:58:36.911Z,3.30
2023-08-05T14:01:06.129Z,2.40
2023-08-05T14:03:34.981Z,2.80
2023-08-05T14:06:03.788Z,2.70
2023-08-05T14:08:32.701Z,2.90
2023-08-05T14:11:01.456Z,3.30
2023-08-05T14:13:30.445Z,3.40
2023-08-05T14:15:59.373Z,3.50
2023-08-05T14:18:28.175Z,3.00
2023-08-05T14:20:57.241Z,2.90
2023-08-05T14:23:26.099Z,3.30
2023-08-05T14:25:54.987Z,3.10
2023-08-05T14:28:23.653Z,3.10
2023-08-05T14:30:52.318Z,3.10
2023-08-05T14:33:21.174Z,3.50
2023-08-05T14:35:49.861Z,3.40
2023-08-05T14:38:19.728Z,3.20
2023-08-05T14:40:48.457Z,3.40
2023-08-05T14:43:17.248Z,2.90
2023-08-05T14:45:45.972Z,3.20
2023-08-05T14:48:14.668Z,3.80
2023-08-05T14:50:43.375Z,3.40
2023-08-05T14:53:12.321Z,2.80
2023-08-05T14:55:41.336Z,3.20
2023-08-05T14:58:10.197Z,3.00
2023-08-05T15:00:39.130Z,2.70
2023-08-05T15:03:08.242Z,3.50
2023-08-05T15:05:37.491Z,2.80
2023-08-05T15:08:06.295Z,2.60
2023-08-05T15:10:34.974Z,2.90
2023-08-05T15:13:03.744Z,2.70
2023-08-05T15:15:32.450Z,3.00
2023-08-05T15:18:01.208Z,2.20
2023-08-05T15:20:30.033Z,2.30
2023-08-05T15:22:58.727Z,2.40
2023-08-05T15:25:27.444Z,2.50
2023-08-05T15:27:56.139Z,2.60
2023-08-05T15:30:24.955Z,2.60
2023-08-05T15:32:53.738Z,2.40
2023-08-05T15:35:22.457Z,2.50
2023-08-05T15:37:51.711Z,2.80
2023-08-05T15:40:21.048Z,2.50
2023-08-05T15:42:49.812Z,2.40
2023-08-05T15:45:18.523Z,2.50
2023-08-05T15:47:47.344Z,2.50
2023-08-05T15:50:19.721Z,2.30
2023-08-05T15:52:50.257Z,2.80
2023-08-05T15:55:19.009Z,2.80
2023-08-05T15:57:48.286Z,2.80
2023-08-05T16:00:17.289Z,2.40
2023-08-05T16:02:46.006Z,2.20
2023-08-05T16:05:14.817Z,2.30
2023-08-05T16:07:43.820Z,2.50
2023-08-05T16:10:12.599Z,2.80
2023-08-05T16:12:41.347Z,2.30
2023-08-05T16:15:10.553Z,2.40
2023-08-05T16:17:39.290Z,2.50
2023-08-05T16:20:08.479Z,2.40
2023-08-05T16:22:37.169Z,3.10
2023-08-05T16:25:06.594Z,2.90
2023-08-05T16:27:37.427Z,2.80
2023-08-05T16:30:07.079Z,2.60
2023-08-05T16:32:36.566Z,2.90
2023-08-05T16:35:08.616Z,2.80
2023-08-05T16:37:37.341Z,3.00
2023-08-05T16:40:07.523Z,2.40
2023-08-05T16:42:36.414Z,2.40
2023-08-05T16:45:06.109Z,2.40
2023-08-05T16:47:35.097Z,2.30
2023-08-05T16:50:04.323Z,2.50
2023-08-05T16:52:33.048Z,2.60
2023-08-05T16:55:01.962Z,2.50
2023-08-05T16:57:30.862Z,3.00
2023-08-05T16:59:59.765Z,2.40
2023-08-05T17:02:28.530Z,2.30
2023-08-05T17:04:57.350Z,2.40
2023-08-05T17:07:26.171Z,2.20
2023-08-05T17:09:55.114Z,2.40
2023-08-05T17:12:24.021Z,2.30
2023-08-05T17:14:52.803Z,3.10
2023-08-05T17:17:22.826Z,2.50
2023-08-05T17:19:51.675Z,2.90
2023-08-05T17:22:20.790Z,2.90
2023-08-05T17:24:49.973Z,3.00
2023-08-05T17:27:18.666Z,2.60
2023-08-05T17:29:47.272Z,2.50
2023-08-05T17:32:17.929Z,2.90
2023-08-05T17:34:47.458Z,2.60
2023-08-05T17:37:16.158Z,2.80
2023-08-05T17:39:44.862Z,3.20
2023-08-05T17:42:13.642Z,2.70
2023-08-05T17:44:42.364Z,2.40
2023-08-05T17:47:11.036Z,2.60
2023-08-05T17:49:39.729Z,2.50
2023-08-05T17:52:08.721Z,2.30
2023-08-05T17:54:37.412Z,2.80
2023-08-05T17:57:06.855Z,2.80
2023-08-05T17:59:35.612Z,2.60
2023-08-05T18:02:04.521Z,2.90
2023-08-05T18:04:33.359Z,2.90
2023-08-05T18:07:02.076Z,2.40
2023-08-05T18:09:31.137Z,2.80
2023-08-05T18:11:59.886Z,2.90
2023-08-05T18:14:28.600Z,3.00
2023-08-05T18:16:57.430Z,3.20
2023-08-05T18:19:26.152Z,3.40
2023-08-05T18:21:54.979Z,3.30
2023-08-05T18:24:23.700Z,3.60
2023-08-05T18:26:52.412Z,3.20
2023-08-05T18:29:21.142Z,3.10
2023-08-05T18:31:49.914Z,3.30
2023-08-05T18:34:18.686Z,2.90
2023-08-05T18:36:47.432Z,3.70
2023-08-05T18:39:16.145Z,3.40
2023-08-05T18:41:47.052Z,4.60
2023-08-05T18:44:17.309Z,3.60
2023-08-05T18:46:45.943Z,3.70
2023-08-05T18:49:14.579Z,3.40
2023-08-05T18:51:43.232Z,3.30
2023-08-05T18:54:11.868Z,3.60
2023-08-05T18:56:40.513Z,3.40
2023-08-05T18:59:11.029Z,3.80
2023-08-05T19:01:40.442Z,3.80
2023-08-05T19:04:09.274Z,4.10
2023-08-05T19:06:38.273Z,3.60
2023-08-05T19:09:09.213Z,3.60
2023-08-05T19:11:38.316Z,4.20
2023-08-05T19:14:07.000Z,4.20
2023-08-05T19:16:35.668Z,3.90
2023-08-05T19:19:04.750Z,4.00
2023-08-05T19:21:33.370Z,3.50
2023-08-05T19:24:02.110Z,4.20
2023-08-05T19:26:30.839Z,4.00
2023-08-05T19:28:59.533Z,4.30
2023-08-05T19:31:28.376Z,4.20
2023-08-05T19:33:57.066Z,4.30
2023-08-05T19:36:26.037Z,4.30
2023-08-05T19:38:54.705Z,4.60
2023-08-05T19:41:23.373Z,10.10
2023-08-05T19:43:52.043Z,5.40
2023-08-05T19:46:20.714Z,4.50
2023-08-05T19:48:49.372Z,5.30
2023-08-05T19:51:18.093Z,4.70
2023-08-05T19:53:48.230Z,4.30
2023-08-05T19:56:17.030Z,4.80
2023-08-05T19:58:46.544Z,4.10
2023-08-05T20:01:15.384Z,5.20
2023-08-05T20:03:44.157Z,4.30
2023-08-05T20:06:12.894Z,4.90
2023-08-05T20:08:41.681Z,4.60
2023-08-05T20:11:10.436Z,4.70
2023-08-05T20:13:39.144Z,4.40
2023-08-05T20:16:07.853Z,5.00
2023-08-05T20:18:36.696Z,4.90
2023-08-05T20:21:06.048Z,5.40
2023-08-05T20:23:35.223Z,4.70
2023-08-05T20:26:10.709Z,4.50
2023-08-05T20:28:39.477Z,5.00
2023-08-05T20:31:08.358Z,4.70
2023-08-05T20:33:37.345Z,4.80
2023-08-05T20:36:11.244Z,4.80
2023-08-05T20:38:40.415Z,4.80
2023-08-05T20:41:09.091Z,5.00
2023-08-05T20:43:37.837Z,5.70
2023-08-05T20:46:12.474Z,5.10
2023-08-05T20:48:48.194Z,4.80
2023-08-05T20:51:17.991Z,5.00
2023-08-05T20:53:46.857Z,5.10
2023-08-05T20:56:15.697Z,5.00
2023-08-05T20:58:44.444Z,4.90
2023-08-05T21:01:13.980Z,5.10
2023-08-05T21:03:42.764Z,5.50
2023-08-05T21:06:11.537Z,5.10
2023-08-05T21:08:40.277Z,6.00
2023-08-05T21:11:10.794Z,6.30
2023-08-05T21:13:41.223Z,5.70
2023-08-05T21:16:11.009Z,5.30
2023-08-05T21:18:39.683Z,5.30
2023-08-05T21:21:08.343Z,5.10
2023-08-05T21:23:37.082Z,5.70
2023-08-05T21:26:05.792Z,5.80
2023-08-05T21:28:34.891Z,5.50
2023-08-05T21:31:03.889Z,6.10
2023-08-05T21:33:32.665Z,5.80
2023-08-05T21:36:01.997Z,5.70
2023-08-05T21:38:31.042Z,5.20
2023-08-05T21:40:59.740Z,5.30
2023-08-05T21:43:28.534Z,6.20
2023-08-05T21:45:59.146Z,6.20
2023-08-05T21:48:31.107Z,5.80
2023-08-05T21:51:02.850Z,6.60
2023-08-05T21:53:31.685Z,6.40
2023-08-05T21:56:00.476Z,5.60
2023-08-05T21:58:29.238Z,6.40
2023-08-05T22:00:58.194Z,5.50
2023-08-05T22:03:28.817Z,6.60
2023-08-05T22:06:07.038Z,5.30
2023-08-05T22:08:35.754Z,6.20
2023-08-05T22:11:10.816Z,5.80
2023-08-05T22:13:39.657Z,6.40
2023-08-05T22:16:08.957Z,6.30
2023-08-05T22:18:38.039Z,6.00
2023-08-05T22:21:06.883Z,6.50
2023-08-05T22:23:35.570Z,7.70
2023-08-05T22:26:08.589Z,6.50
2023-08-05T22:28:37.411Z,6.60
2023-08-05T22:31:06.356Z,6.90
2023-08-05T22:33:35.041Z,6.20
2023-08-05T22:36:16.794Z,6.60
2023-08-05T22:38:47.353Z,5.90
2023-08-05T22:41:16.107Z,6.40
2023-08-05T22:43:44.923Z,6.60
2023-08-05T22:46:13.783Z,6.80
2023-08-05T22:48:44.006Z,7.10
2023-08-05T22:51:13.047Z,6.30
2023-08-05T22:53:46.278Z,6.60
2023-08-05T22:56:15.142Z,6.80
2023-08-05T22:58:44.090Z,7.90
2023-08-05T23:01:12.918Z,8.50
2023-08-05T23:03:42.462Z,7.20
2023-08-05T23:06:16.185Z,6.70
2023-08-05T23:08:46.072Z,7.20
2023-08-05T23:11:14.754Z,8.10
2023-08-05T23:13:43.570Z,6.50
2023-08-05T23:16:18.231Z,6.80
2023-08-05T23:18:50.826Z,7.60
2023-08-05T23:23:48.170Z,6.50
2023-08-05T23:26:17.245Z,6.90
2023-08-05T23:28:45.917Z,6.60
2023-08-05T23:31:14.594Z,6.90
2023-08-05T23:33:43.285Z,7.80
2023-08-05T23:36:12.472Z,8.80
2023-08-05T23:38:41.204Z,6.80
2023-08-05T23:41:10.334Z,7.00
2023-08-05T23:43:39.130Z,7.60
2023-08-05T23:46:07.845Z,7.20
2023-08-05T23:48:36.565Z,7.50
2023-08-05T23:51:05.467Z,7.30
2023-08-05T23:53:34.181Z,7.70
2023-08-05T23:56:02.969Z,8.00
2023-08-05T23:58:31.622Z,8.50
